KCAR/CAR METAR and TAF weather

Enter ICAO airport designator
Station Type Date Time Source
KCAR METAR 2021/08/05 03:54 UTC NOAA

KCAR 050354Z AUTO 16004KT 10SM CLR 18/16 A3019 RMK AO2 SLP224 T01830161


Station Type Date Time Source
KCAR Decoded METAR 2021/08/05 03:54 UTC NOAA

CARIBOU MUNICIPAL AIRPORT, ME, United States (KCAR) 46-52N 68-01W 191M
Aug 04, 2021 - 11:54 PM EDT / 2021.08.05 0354 UTC
Wind: from the SSE (160 degrees) at 5 MPH (4 KT):0
Visibility: 10 mile(s):0
Sky conditions: clear
Temperature: 64.9 F (18.3 C)
Dew Point: 61.0 F (16.1 C)
Relative Humidity: 86%
Pressure (altimeter): 30.19 in. Hg (1022 hPa)
ob: KCAR 050354Z AUTO 16004KT 10SM CLR 18/16 A3019 RMK AO2 SLP224 T01830161
cycle: 4

Station Type Date Time Source
KCAR TAF 2021/08/04 18:22 UTC NOAA

TAF KCAR 041720Z 0418/0518 24004KT P6SM SCT030 BKN250
FM050500 16004KT P6SM FEW006
FM051300 16005KT P6SM BKN100

Example: see airport list